createdAt,value
2022-08-05T00:00:46.352Z,65.81
2022-08-05T00:01:48.479Z,66.31
2022-08-05T00:02:39.652Z,65.81
2022-08-05T00:03:38.548Z,66.53
2022-08-05T00:04:40.276Z,66.27
2022-08-05T00:06:04.637Z,66.27
2022-08-05T00:06:39.543Z,66.77
2022-08-05T00:08:00.397Z,66.77
2022-08-05T00:08:39.493Z,67.27
2022-08-05T00:09:38.485Z,66.87
2022-08-05T00:10:39.486Z,66.77
2022-08-05T00:11:49.244Z,67.66
2022-08-05T00:12:55.866Z,68.19
2022-08-05T00:13:40.128Z,68.99
2022-08-05T00:14:38.476Z,69.02
2022-08-05T00:15:56.050Z,70.23
2022-08-05T00:16:52.622Z,68.93
2022-08-05T00:17:39.427Z,68.90
2022-08-05T00:18:38.437Z,67.70
2022-08-05T00:19:44.153Z,68.60
2022-08-05T00:20:39.397Z,68.49
2022-08-05T00:21:38.382Z,67.47
2022-08-05T00:22:38.379Z,67.17
2022-08-05T00:23:46.267Z,66.57
2022-08-05T00:24:42.473Z,67.96
2022-08-05T00:25:45.678Z,66.74
2022-08-05T00:26:39.350Z,67.43
2022-08-05T00:27:39.612Z,68.07
2022-08-05T00:28:38.336Z,68.79
2022-08-05T00:29:38.529Z,68.70
2022-08-05T00:30:38.321Z,69.82
2022-08-05T00:31:54.035Z,70.03
2022-08-05T00:32:39.319Z,70.12
2022-08-05T00:34:56.488Z,69.92
2022-08-05T00:34:56.993Z,69.92
2022-08-05T00:36:15.208Z,68.30
2022-08-05T00:37:10.544Z,69.29
2022-08-05T00:37:52.860Z,68.40
2022-08-05T00:38:39.260Z,68.30
2022-08-05T00:39:44.461Z,68.40
2022-08-05T00:40:39.246Z,68.99
2022-08-05T00:41:51.421Z,69.09
2022-08-05T00:42:39.207Z,68.40
2022-08-05T00:43:47.101Z,68.40
2022-08-05T00:44:39.195Z,68.60
2022-08-05T00:45:43.838Z,68.10
2022-08-05T00:46:43.561Z,67.36
2022-08-05T00:47:57.169Z,67.10
2022-08-05T00:48:50.476Z,66.17
2022-08-05T00:49:51.066Z,66.47
2022-08-05T00:50:39.192Z,65.77
2022-08-05T00:51:51.540Z,65.84
2022-08-05T00:52:39.224Z,65.54
2022-08-05T00:54:01.026Z,65.81
2022-08-05T00:54:39.126Z,65.31
2022-08-05T00:55:42.763Z,65.41
2022-08-05T00:56:39.113Z,65.61
2022-08-05T00:57:58.127Z,65.81
2022-08-05T00:58:39.085Z,66.71
2022-08-05T00:59:44.529Z,66.71
2022-08-05T01:00:39.107Z,66.91
2022-08-05T01:01:42.815Z,67.00
2022-08-05T01:02:39.074Z,66.61
2022-08-05T01:03:38.034Z,68.10
2022-08-05T01:04:38.038Z,68.10
2022-08-05T01:05:38.025Z,68.00
2022-08-05T01:06:38.038Z,68.30
2022-08-05T01:07:37.994Z,68.60
2022-08-05T01:08:43.366Z,68.60
2022-08-05T01:09:38.993Z,68.50
2022-08-05T01:10:37.980Z,68.23
2022-08-05T01:11:37.956Z,68.93
2022-08-05T01:12:37.964Z,69.73
2022-08-05T01:13:58.715Z,69.76
2022-08-05T01:14:38.934Z,69.76
2022-08-05T01:15:37.943Z,69.86
2022-08-05T01:16:38.931Z,69.86
2022-08-05T01:17:40.278Z,70.03
2022-08-05T01:18:38.908Z,69.86
2022-08-05T01:20:02.340Z,69.76
2022-08-05T01:20:38.909Z,69.62
2022-08-05T01:21:38.570Z,70.06
2022-08-05T01:22:37.882Z,70.06
2022-08-05T01:23:37.865Z,70.26
2022-08-05T01:24:37.880Z,70.06
2022-08-05T01:25:40.478Z,70.06
2022-08-05T01:26:38.107Z,70.36
2022-08-05T01:27:50.619Z,70.56
2022-08-05T01:28:39.537Z,71.05
2022-08-05T01:29:37.829Z,70.89
2022-08-05T01:30:38.837Z,71.19
2022-08-05T01:31:42.699Z,71.19
2022-08-05T01:32:38.842Z,71.09
2022-08-05T01:33:37.812Z,70.79
2022-08-05T01:34:37.796Z,70.89
2022-08-05T01:35:50.837Z,71.09
2022-08-05T01:36:42.129Z,71.29
2022-08-05T01:37:44.320Z,70.79
2022-08-05T01:38:38.751Z,70.69
2022-08-05T01:39:47.311Z,71.39
2022-08-05T01:40:38.734Z,71.09
2022-08-05T01:41:37.740Z,70.95
2022-08-05T01:42:37.718Z,71.59
2022-08-05T01:43:37.709Z,71.98
2022-08-05T01:44:37.693Z,72.28
2022-08-05T01:45:42.800Z,73.28
2022-08-05T01:46:42.579Z,73.88
2022-08-05T01:47:43.142Z,74.38
2022-08-05T01:48:37.653Z,74.38
2022-08-05T01:50:00.398Z,74.58
2022-08-05T01:50:38.635Z,74.68
2022-08-05T01:51:37.641Z,75.07
2022-08-05T01:52:37.647Z,75.51
2022-08-05T01:53:57.534Z,75.81
2022-08-05T01:54:45.888Z,76.01
2022-08-05T01:55:38.676Z,76.11
2022-08-05T01:58:09.943Z,76.01
2022-08-05T01:58:12.153Z,76.21
2022-08-05T01:58:44.699Z,76.11
2022-08-05T01:59:38.569Z,76.04
2022-08-05T02:00:37.562Z,76.65
2022-08-05T02:01:40.222Z,76.41
2022-08-05T02:02:37.773Z,76.51
2022-08-05T02:03:38.553Z,76.21
2022-08-05T02:04:37.590Z,76.84
2022-08-05T02:05:37.511Z,76.95
2022-08-05T02:06:39.071Z,76.54
2022-08-05T02:07:37.490Z,77.14
2022-08-05T02:08:40.956Z,76.84
2022-08-05T02:09:38.503Z,77.14
2022-08-05T02:10:37.475Z,76.65
2022-08-05T02:11:37.493Z,76.84
2022-08-05T02:12:37.458Z,76.84
2022-08-05T02:13:53.383Z,76.84
2022-08-05T02:14:38.452Z,77.04
2022-08-05T02:15:37.489Z,77.14
2022-08-05T02:16:37.450Z,76.95
2022-08-05T02:18:30.820Z,76.84
2022-08-05T02:18:41.941Z,76.95
2022-08-05T02:19:46.900Z,76.95
2022-08-05T02:20:38.932Z,76.84
2022-08-05T02:21:40.331Z,76.75
2022-08-05T02:22:38.398Z,76.95
2022-08-05T02:23:37.366Z,78.74
2022-08-05T02:24:37.371Z,80.68
2022-08-05T02:25:49.184Z,82.47
2022-08-05T02:26:38.341Z,85.85
2022-08-05T02:27:59.810Z,87.39
2022-08-05T02:28:41.641Z,89.83
2022-08-05T02:29:59.782Z,91.02
2022-08-05T02:30:38.306Z,93.37
2022-08-05T02:31:38.301Z,93.41
2022-08-05T02:32:37.291Z,94.62
2022-08-05T02:33:38.285Z,94.82
2022-08-05T02:34:37.329Z,94.66
2022-08-05T02:35:38.120Z,95.01
2022-08-05T02:36:38.251Z,95.21
2022-08-05T02:37:37.236Z,93.81
2022-08-05T02:38:37.256Z,94.92
2022-08-05T02:39:37.274Z,94.36
2022-08-05T02:40:37.834Z,95.76
2022-08-05T02:41:57.908Z,96.71
2022-08-05T02:42:38.202Z,97.96
2022-08-05T02:43:37.195Z,99.37
2022-08-05T02:44:38.203Z,99.99
2022-08-05T02:45:51.968Z,99.99
2022-08-05T02:46:53.850Z,99.77
2022-08-05T02:48:06.670Z,99.99
2022-08-05T02:48:38.144Z,99.99
2022-08-05T02:49:37.926Z,99.16
2022-08-05T02:50:37.147Z,99.57
2022-08-05T02:52:03.206Z,99.16
2022-08-05T02:52:38.166Z,99.07
2022-08-05T02:53:39.281Z,98.62
2022-08-05T02:54:37.499Z,99.16
2022-08-05T02:55:54.065Z,98.97
2022-08-05T02:56:38.124Z,99.27
2022-08-05T02:58:12.049Z,99.37
2022-08-05T02:58:38.058Z,99.67
2022-08-05T02:59:50.322Z,99.99
2022-08-05T03:00:38.046Z,99.99
2022-08-05T03:01:37.083Z,99.99
2022-08-05T03:02:37.025Z,99.99
2022-08-05T03:04:02.222Z,99.99
2022-08-05T03:04:38.010Z,99.99
2022-08-05T03:06:54.113Z,99.99
2022-08-05T03:06:56.736Z,99.99
2022-08-05T03:08:00.316Z,99.99
2022-08-05T03:08:38.012Z,99.99
2022-08-05T03:09:38.112Z,99.99
2022-08-05T03:10:36.993Z,99.99
2022-08-05T03:11:54.469Z,99.27
2022-08-05T03:12:37.963Z,99.07
2022-08-05T03:13:52.252Z,98.66
2022-08-05T03:14:45.749Z,97.86
2022-08-05T03:15:37.928Z,97.86
2022-08-05T03:16:36.934Z,99.37
2022-08-05T03:17:41.508Z,98.57
2022-08-05T03:18:37.925Z,99.16
2022-08-05T03:19:36.900Z,99.07
2022-08-05T03:20:36.880Z,99.07
2022-08-05T03:21:41.506Z,99.47
2022-08-05T03:22:37.939Z,99.82
2022-08-05T03:23:37.868Z,99.32
2022-08-05T03:24:36.868Z,99.21
2022-08-05T03:26:04.683Z,99.57
2022-08-05T03:26:37.845Z,99.16
2022-08-05T03:27:39.541Z,99.99
2022-08-05T03:28:37.845Z,99.52
2022-08-05T03:29:46.002Z,99.41
2022-08-05T03:30:38.207Z,99.52
2022-08-05T03:31:56.652Z,99.99
2022-08-05T03:32:37.792Z,99.77
2022-08-05T03:33:50.853Z,99.07
2022-08-05T03:34:37.814Z,99.57
2022-08-05T03:35:40.885Z,98.66
2022-08-05T03:36:37.764Z,99.37
2022-08-05T03:37:44.763Z,99.16
2022-08-05T03:38:37.733Z,99.32
2022-08-05T03:39:58.496Z,99.11
2022-08-05T03:40:37.747Z,99.16
2022-08-05T03:41:38.820Z,99.82
2022-08-05T03:42:51.505Z,99.57
2022-08-05T03:44:08.239Z,99.99
2022-08-05T03:44:37.710Z,99.99
2022-08-05T03:45:57.645Z,99.82
2022-08-05T03:46:37.672Z,99.47
2022-08-05T03:47:41.353Z,99.71
2022-08-05T03:48:37.659Z,99.47
2022-08-05T03:49:51.328Z,99.16
2022-08-05T03:50:37.681Z,99.16
2022-08-05T03:52:38.007Z,98.86
2022-08-05T03:55:00.377Z,98.97
2022-08-05T03:55:07.215Z,98.16
2022-08-05T03:55:52.517Z,99.16
2022-08-05T03:56:05.238Z,98.52
2022-08-05T03:56:37.609Z,97.52
2022-08-05T03:57:42.458Z,97.92
2022-08-05T03:58:37.574Z,97.31
2022-08-05T03:59:46.801Z,97.72
2022-08-05T04:00:37.555Z,97.52
2022-08-05T04:01:36.647Z,97.11
2022-08-05T04:02:38.327Z,97.92
2022-08-05T04:03:38.148Z,97.06
2022-08-05T04:04:36.528Z,98.42
2022-08-05T04:05:36.523Z,99.02
2022-08-05T04:06:36.512Z,99.02
2022-08-05T04:07:36.596Z,99.52
2022-08-05T04:08:37.527Z,99.42
2022-08-05T04:09:36.734Z,99.02
2022-08-05T04:10:38.325Z,99.22
2022-08-05T04:11:47.547Z,99.72
2022-08-05T04:13:24.535Z,99.42
2022-08-05T04:14:30.035Z,99.42
2022-08-05T04:15:25.541Z,98.92
2022-08-05T04:16:32.332Z,99.02
2022-08-05T04:17:25.942Z,98.82
2022-08-05T04:18:25.700Z,99.92
2022-08-05T04:19:24.517Z,99.32
2022-08-05T04:20:24.485Z,98.92
2022-08-05T04:22:05.037Z,98.92
2022-08-05T04:22:26.581Z,99.42
2022-08-05T04:24:00.217Z,99.42
2022-08-05T04:24:25.522Z,99.32
2022-08-05T04:25:57.651Z,99.22
2022-08-05T04:26:25.444Z,99.12
2022-08-05T04:27:41.653Z,99.17
2022-08-05T04:28:30.974Z,98.22
2022-08-05T04:29:27.197Z,97.67
2022-08-05T04:30:24.436Z,97.77
2022-08-05T04:31:27.632Z,98.02
2022-08-05T04:32:31.222Z,97.92
2022-08-05T04:34:17.903Z,97.27
2022-08-05T04:34:32.561Z,98.22
2022-08-05T04:35:25.388Z,97.37
2022-08-05T04:36:46.569Z,97.92
2022-08-05T04:38:01.348Z,98.17
2022-08-05T04:38:39.604Z,98.07
2022-08-05T04:39:25.381Z,97.87
2022-08-05T04:40:24.328Z,97.97
2022-08-05T04:41:36.610Z,98.07
2022-08-05T04:42:25.642Z,98.07
2022-08-05T04:43:24.302Z,97.47
2022-08-05T04:44:29.667Z,98.07
2022-08-05T04:45:47.694Z,98.97
2022-08-05T04:46:27.823Z,98.37
2022-08-05T04:47:24.581Z,97.67
2022-08-05T04:48:27.719Z,97.27
2022-08-05T04:49:24.685Z,97.57
2022-08-05T04:50:37.179Z,98.02
2022-08-05T04:51:25.244Z,97.06
2022-08-05T04:52:24.257Z,97.17
2022-08-05T04:53:24.246Z,96.87
2022-08-05T04:54:24.220Z,97.87
2022-08-05T04:56:05.091Z,96.77
2022-08-05T04:56:34.828Z,97.81
2022-08-05T04:57:25.383Z,99.32
2022-08-05T04:58:24.203Z,99.99
2022-08-05T04:59:38.464Z,99.99
2022-08-05T05:00:25.177Z,99.99
2022-08-05T05:01:33.465Z,99.99
2022-08-05T05:02:36.136Z,99.99
2022-08-05T05:03:25.150Z,99.99
2022-08-05T05:04:25.167Z,99.99
2022-08-05T05:05:28.682Z,99.99
2022-08-05T05:06:39.850Z,99.99
2022-08-05T05:07:29.465Z,99.99
2022-08-05T05:08:29.911Z,99.99
2022-08-05T05:09:25.092Z,99.99
2022-08-05T05:10:24.114Z,99.99
2022-08-05T05:11:24.093Z,99.99
2022-08-05T05:12:27.476Z,99.99
2022-08-05T05:13:24.076Z,99.99
2022-08-05T05:14:27.839Z,99.99
2022-08-05T05:15:56.421Z,99.99
2022-08-05T05:16:25.041Z,99.99
2022-08-05T05:17:56.193Z,99.99
2022-08-05T05:18:28.297Z,99.99
2022-08-05T05:19:27.259Z,99.99
2022-08-05T05:20:28.308Z,99.99
2022-08-05T05:21:24.045Z,99.99
2022-08-05T05:22:26.513Z,99.99
2022-08-05T05:23:23.993Z,99.99
2022-08-05T05:24:24.042Z,99.99
2022-08-05T05:25:40.358Z,99.99
2022-08-05T05:26:28.343Z,99.99
2022-08-05T05:27:25.195Z,99.99
2022-08-05T05:28:24.970Z,99.99
2022-08-05T05:29:23.948Z,98.57
2022-08-05T05:30:31.203Z,98.97
2022-08-05T05:31:25.153Z,98.97
2022-08-05T05:32:23.923Z,99.07
2022-08-05T05:33:24.056Z,98.93
2022-08-05T05:34:26.990Z,98.82
2022-08-05T05:35:23.881Z,99.13
2022-08-05T05:36:23.868Z,99.99
2022-08-05T05:37:24.165Z,99.99
2022-08-05T05:38:27.124Z,99.99
2022-08-05T05:39:23.884Z,99.99
2022-08-05T05:40:25.807Z,99.99
2022-08-05T05:41:23.880Z,99.99
2022-08-05T05:42:23.825Z,99.99
2022-08-05T05:43:54.301Z,99.99
2022-08-05T05:44:37.527Z,99.99
2022-08-05T05:45:24.911Z,99.99
2022-08-05T05:46:23.796Z,99.99
2022-08-05T05:47:30.614Z,99.99
2022-08-05T05:48:27.497Z,99.99
2022-08-05T05:49:23.770Z,99.99
2022-08-05T05:50:23.756Z,99.99
2022-08-05T05:51:23.761Z,99.99
2022-08-05T05:52:25.492Z,99.99
2022-08-05T05:53:24.730Z,99.99
2022-08-05T05:54:49.898Z,99.99
2022-08-05T05:55:24.739Z,99.99
2022-08-05T05:56:26.133Z,99.99
2022-08-05T05:57:24.936Z,99.99
2022-08-05T05:58:32.026Z,99.99
2022-08-05T05:59:24.696Z,99.99
2022-08-05T06:00:31.451Z,99.99
2022-08-05T06:01:24.673Z,99.99
2022-08-05T06:02:32.531Z,99.99
2022-08-05T06:03:40.652Z,99.99
2022-08-05T06:04:24.723Z,99.99
2022-08-05T06:05:23.676Z,99.99
2022-08-05T06:06:23.630Z,99.99
2022-08-05T06:07:23.817Z,99.99
2022-08-05T06:08:32.548Z,99.99
2022-08-05T06:09:49.146Z,99.99
2022-08-05T06:10:24.608Z,99.99
2022-08-05T06:11:23.593Z,99.99
2022-08-05T06:12:23.600Z,99.99
2022-08-05T06:13:23.624Z,99.99
2022-08-05T06:14:23.583Z,99.99
2022-08-05T06:15:24.416Z,99.99
2022-08-05T06:16:28.193Z,99.99
2022-08-05T06:17:31.041Z,99.52
2022-08-05T06:18:30.992Z,98.93
2022-08-05T06:19:26.144Z,99.37
2022-08-05T06:20:24.543Z,99.28
2022-08-05T06:21:23.506Z,99.02
2022-08-05T06:22:24.501Z,98.02
2022-08-05T06:23:23.500Z,97.47
2022-08-05T06:24:25.836Z,96.97
2022-08-05T06:25:25.028Z,97.58
2022-08-05T06:26:25.068Z,97.78
2022-08-05T06:28:12.092Z,97.67
2022-08-05T06:28:27.011Z,97.67
2022-08-05T06:29:42.965Z,97.67
2022-08-05T06:31:50.763Z,98.28
2022-08-05T06:32:50.949Z,97.47
2022-08-05T06:34:07.386Z,97.88
2022-08-05T06:34:53.613Z,97.97
2022-08-05T06:36:07.664Z,97.13
2022-08-05T06:36:57.601Z,96.43
2022-08-05T06:37:57.376Z,96.33
2022-08-05T06:38:51.529Z,95.53
2022-08-05T06:39:50.522Z,95.73
2022-08-05T06:40:50.531Z,95.48
2022-08-05T06:41:50.510Z,94.84
2022-08-05T06:42:52.029Z,93.30
2022-08-05T06:43:57.603Z,90.52
2022-08-05T06:44:51.476Z,86.42
2022-08-05T06:46:06.999Z,82.59
2022-08-05T06:46:51.467Z,82.16
2022-08-05T06:48:36.410Z,79.72
2022-08-05T06:48:59.011Z,78.23
2022-08-05T06:50:00.146Z,77.14
2022-08-05T06:50:51.469Z,76.61
2022-08-05T06:51:50.481Z,77.27
2022-08-05T06:52:58.436Z,78.13
2022-08-05T06:53:53.614Z,77.87
2022-08-05T06:54:52.088Z,79.30
2022-08-05T06:55:50.403Z,82.29
2022-08-05T06:56:55.092Z,84.47
2022-08-05T06:58:02.662Z,86.88
2022-08-05T06:58:51.369Z,88.86
2022-08-05T06:59:55.046Z,89.92
2022-08-05T07:00:51.403Z,88.98
2022-08-05T07:01:53.003Z,88.78
2022-08-05T07:02:53.741Z,86.56
2022-08-05T07:03:50.372Z,82.71
2022-08-05T07:04:50.337Z,76.28
2022-08-05T07:05:50.488Z,74.41
2022-08-05T07:06:50.601Z,71.60
2022-08-05T07:07:50.322Z,67.94
2022-08-05T07:08:51.926Z,68.96
2022-08-05T07:09:55.689Z,69.39
2022-08-05T07:10:53.177Z,68.17
2022-08-05T07:11:51.754Z,69.06
2022-08-05T07:12:50.462Z,70.31
2022-08-05T07:13:57.647Z,71.21
2022-08-05T07:14:54.010Z,73.10
2022-08-05T07:16:00.801Z,75.95
2022-08-05T07:17:57.181Z,78.20
2022-08-05T07:18:00.539Z,78.20
2022-08-05T07:18:51.222Z,77.55
2022-08-05T07:20:32.085Z,80.60
2022-08-05T07:20:51.188Z,82.04
2022-08-05T07:22:00.975Z,82.34
2022-08-05T07:22:51.267Z,81.34
2022-08-05T07:23:52.287Z,81.32
2022-08-05T07:24:53.582Z,83.29
2022-08-05T07:25:56.288Z,84.55
2022-08-05T07:26:51.351Z,84.95
2022-08-05T07:27:58.017Z,82.75
2022-08-05T07:28:51.147Z,84.19
2022-08-05T07:30:27.479Z,84.43
2022-08-05T07:30:54.740Z,86.27
2022-08-05T07:31:54.884Z,84.67
2022-08-05T07:32:53.525Z,86.27
2022-08-05T07:33:50.077Z,84.83
2022-08-05T07:34:50.121Z,86.22
2022-08-05T07:36:03.318Z,86.29
2022-08-05T07:36:51.217Z,85.33
2022-08-05T07:37:50.057Z,86.47
2022-08-05T07:38:54.792Z,86.87
2022-08-05T07:40:04.073Z,86.66
2022-08-05T07:40:55.655Z,87.66
2022-08-05T07:42:13.955Z,85.09
2022-08-05T07:42:51.009Z,83.49
2022-08-05T07:43:50.001Z,85.09
2022-08-05T07:44:49.995Z,85.69
2022-08-05T07:45:57.428Z,86.44
2022-08-05T07:46:50.965Z,85.14
2022-08-05T07:47:49.970Z,84.51
2022-08-05T07:49:02.857Z,85.21
2022-08-05T07:49:54.611Z,84.61
2022-08-05T07:50:49.942Z,84.95
2022-08-05T07:51:53.560Z,84.25
2022-08-05T07:52:49.913Z,84.55
2022-08-05T07:53:51.729Z,86.29
2022-08-05T07:54:49.974Z,84.89
2022-08-05T07:56:05.518Z,85.28
2022-08-05T07:57:12.889Z,85.35
2022-08-05T07:58:02.149Z,83.75
2022-08-05T07:58:55.059Z,83.21
2022-08-05T07:59:50.912Z,84.21
2022-08-05T08:00:49.887Z,84.91
2022-08-05T08:01:52.342Z,85.06
2022-08-05T08:03:13.945Z,83.77
2022-08-05T08:03:51.325Z,83.33
2022-08-05T08:04:49.938Z,83.37
2022-08-05T08:05:50.051Z,83.41
2022-08-05T08:06:49.948Z,83.71
2022-08-05T08:07:59.458Z,84.11
2022-08-05T08:08:50.777Z,85.00
2022-08-05T08:09:49.776Z,84.45
2022-08-05T08:10:49.760Z,84.95
2022-08-05T08:11:58.937Z,86.40
2022-08-05T08:12:50.774Z,83.21
2022-08-05T08:14:00.768Z,82.71
2022-08-05T08:14:50.728Z,83.31
2022-08-05T08:16:35.143Z,82.71
2022-08-05T08:16:53.364Z,82.42
2022-08-05T08:17:52.653Z,84.05
2022-08-05T08:18:49.937Z,84.91
2022-08-05T08:20:10.331Z,84.77
2022-08-05T08:21:02.070Z,83.63
2022-08-05T08:21:50.733Z,82.00
2022-08-05T08:22:49.654Z,80.27
2022-08-05T08:24:00.968Z,80.36
2022-08-05T08:24:51.961Z,80.17
2022-08-05T08:25:59.928Z,79.57
2022-08-05T08:26:50.632Z,79.57
2022-08-05T08:27:51.150Z,79.57
2022-08-05T08:28:49.731Z,79.77
2022-08-05T08:30:05.222Z,79.87
2022-08-05T08:30:50.657Z,80.03
2022-08-05T08:31:49.598Z,79.83
2022-08-05T08:32:49.622Z,79.14
2022-08-05T08:33:51.677Z,79.43
2022-08-05T08:34:49.590Z,80.07
2022-08-05T08:35:53.011Z,79.77
2022-08-05T08:36:55.831Z,79.77
2022-08-05T08:37:53.490Z,79.93
2022-08-05T08:38:53.448Z,79.97
2022-08-05T08:39:49.883Z,79.47
2022-08-05T08:40:51.793Z,80.80
2022-08-05T08:41:52.479Z,81.10
2022-08-05T08:42:52.737Z,81.44
2022-08-05T08:45:19.143Z,82.00
2022-08-05T08:45:24.311Z,80.74
2022-08-05T08:45:50.476Z,81.24
2022-08-05T08:46:49.463Z,80.94
2022-08-05T08:48:10.478Z,82.29
2022-08-05T08:49:07.982Z,82.70
2022-08-05T08:50:23.110Z,80.21
2022-08-05T08:51:03.901Z,81.06
2022-08-05T08:52:03.797Z,80.17
2022-08-05T08:52:51.775Z,79.57
2022-08-05T08:53:49.443Z,80.17
2022-08-05T08:54:49.590Z,80.57
2022-08-05T08:56:04.621Z,78.84
2022-08-05T08:56:50.406Z,78.20
2022-08-05T08:57:58.271Z,76.93
2022-08-05T08:58:50.627Z,77.10
2022-08-05T08:59:49.379Z,75.71
2022-08-05T09:00:49.406Z,73.10
2022-08-05T09:01:57.275Z,72.40
2022-08-05T09:02:50.381Z,73.39
2022-08-05T09:03:55.459Z,72.44
2022-08-05T09:05:15.911Z,74.95
2022-08-05T09:06:09.149Z,74.32
2022-08-05T09:06:50.326Z,73.23
2022-08-05T09:07:58.087Z,74.32
2022-08-05T09:08:50.291Z,74.26
2022-08-05T09:09:49.281Z,75.41
2022-08-05T09:10:49.282Z,75.51
2022-08-05T09:11:51.612Z,74.52
2022-08-05T09:12:51.033Z,73.72
2022-08-05T09:14:00.846Z,74.42
2022-08-05T09:14:57.765Z,73.46
2022-08-05T09:15:50.251Z,75.88
2022-08-05T09:16:49.270Z,76.97
2022-08-05T09:17:49.444Z,75.68
2022-08-05T09:18:49.234Z,75.18
2022-08-05T09:19:55.428Z,76.28
2022-08-05T09:20:50.212Z,75.98
2022-08-05T09:22:21.746Z,75.18
2022-08-05T09:22:51.837Z,74.95
2022-08-05T09:23:49.159Z,74.46
2022-08-05T09:24:49.155Z,74.52
2022-08-05T09:26:03.274Z,74.42
2022-08-05T09:26:51.890Z,73.93
2022-08-05T09:28:04.744Z,74.55
2022-08-05T09:28:50.129Z,74.26
2022-08-05T09:29:49.109Z,74.49
2022-08-05T09:30:49.356Z,73.66
2022-08-05T09:32:41.297Z,73.27
2022-08-05T09:32:50.219Z,74.16
2022-08-05T09:33:49.086Z,74.32
2022-08-05T09:34:49.123Z,73.43
2022-08-05T09:35:49.077Z,72.07
2022-08-05T09:36:56.132Z,74.19
2022-08-05T09:38:17.046Z,73.80
2022-08-05T09:38:50.076Z,74.35
2022-08-05T09:39:52.309Z,74.35
2022-08-05T09:40:53.763Z,72.53
2022-08-05T09:41:56.165Z,71.64
2022-08-05T09:42:49.994Z,72.60
2022-08-05T09:43:49.445Z,73.75
2022-08-05T09:44:50.427Z,71.47
2022-08-05T09:46:06.568Z,70.45
2022-08-05T09:46:53.558Z,71.64
2022-08-05T09:47:55.909Z,69.26
2022-08-05T09:49:06.634Z,69.92
2022-08-05T09:50:01.151Z,67.54
2022-08-05T09:50:49.970Z,68.43
2022-08-05T09:51:50.189Z,65.79
2022-08-05T09:52:52.959Z,68.27
2022-08-05T09:53:54.669Z,68.04
2022-08-05T09:54:49.921Z,66.58
2022-08-05T09:55:57.087Z,66.25
2022-08-05T09:56:51.853Z,65.66
2022-08-05T09:57:48.924Z,66.52
2022-08-05T09:58:50.359Z,67.31
2022-08-05T09:59:48.935Z,69.62
2022-08-05T10:00:48.862Z,69.46
2022-08-05T10:01:48.868Z,66.22
2022-08-05T10:02:49.894Z,68.76
2022-08-05T10:03:59.194Z,66.09
2022-08-05T10:04:49.829Z,67.38
2022-08-05T10:05:48.815Z,66.55
2022-08-05T10:06:49.825Z,65.95
2022-08-05T10:08:10.680Z,64.31
2022-08-05T10:08:53.796Z,65.86
2022-08-05T10:09:48.792Z,65.06
2022-08-05T10:10:53.878Z,65.39
2022-08-05T10:11:48.878Z,65.79
2022-08-05T10:12:49.856Z,65.49
2022-08-05T10:13:49.184Z,64.93
2022-08-05T10:14:48.743Z,66.05
2022-08-05T10:15:48.743Z,66.71
2022-08-05T10:16:53.015Z,66.39
2022-08-05T10:17:56.866Z,64.53
2022-08-05T10:18:49.738Z,66.45
2022-08-05T10:20:03.116Z,66.15
2022-08-05T10:20:49.702Z,67.05
2022-08-05T10:21:48.686Z,66.52
2022-08-05T10:22:51.074Z,66.42
2022-08-05T10:23:59.946Z,64.93
2022-08-05T10:24:49.666Z,65.13
2022-08-05T10:25:48.684Z,65.49
2022-08-05T10:26:51.232Z,64.34
2022-08-05T10:28:13.381Z,66.42
2022-08-05T10:28:49.709Z,65.23
2022-08-05T10:30:41.297Z,65.42
2022-08-05T10:32:49.511Z,64.50
2022-08-05T10:32:54.150Z,64.77
2022-08-05T10:33:00.678Z,63.18
2022-08-05T10:33:54.300Z,62.76
2022-08-05T10:34:49.620Z,62.30
2022-08-05T10:35:59.934Z,61.08
2022-08-05T10:36:49.574Z,61.51
2022-08-05T10:37:48.561Z,60.69
2022-08-05T10:38:48.584Z,61.45
2022-08-05T10:40:03.063Z,60.66
2022-08-05T10:40:49.618Z,58.72
2022-08-05T10:41:49.063Z,60.62
2022-08-05T10:42:48.576Z,60.03
2022-08-05T10:43:48.648Z,60.52
2022-08-05T10:44:48.497Z,61.31
2022-08-05T10:45:48.498Z,61.41
2022-08-05T10:46:50.950Z,61.41
2022-08-05T10:48:29.888Z,61.41
2022-08-05T10:48:57.085Z,60.42
2022-08-05T10:50:32.065Z,60.32
2022-08-05T10:50:49.479Z,60.52
2022-08-05T10:51:58.273Z,60.62
2022-08-05T10:52:49.947Z,62.01
2022-08-05T10:53:48.432Z,60.42
2022-08-05T10:54:56.053Z,60.25
2022-08-05T10:56:05.150Z,61.34
2022-08-05T10:56:49.596Z,61.24
2022-08-05T10:57:51.339Z,61.24
2022-08-05T10:58:49.592Z,61.51
2022-08-05T11:00:02.127Z,60.42
2022-08-05T11:00:55.465Z,59.66
2022-08-05T11:02:03.842Z,60.65
2022-08-05T11:02:50.665Z,60.55
2022-08-05T11:03:48.451Z,61.51
2022-08-05T11:04:48.408Z,60.75
2022-08-05T11:05:48.378Z,62.10
2022-08-05T11:06:48.350Z,60.55
2022-08-05T11:08:01.761Z,61.54
2022-08-05T11:08:49.341Z,61.47
2022-08-05T11:09:48.325Z,61.77
2022-08-05T11:10:59.997Z,61.15
2022-08-05T11:11:53.378Z,59.89
2022-08-05T11:12:54.160Z,60.81
2022-08-05T11:13:58.046Z,60.64
2022-08-05T11:15:11.426Z,62.26
2022-08-05T11:16:00.597Z,60.64
2022-08-05T11:16:57.738Z,61.70
2022-08-05T11:17:57.014Z,62.19
2022-08-05T11:18:49.242Z,61.77
2022-08-05T11:20:10.500Z,62.13
2022-08-05T11:20:49.340Z,62.04
2022-08-05T11:21:49.345Z,60.62
2022-08-05T11:22:50.004Z,60.79
2022-08-05T11:24:04.590Z,60.46
2022-08-05T11:24:50.774Z,58.69
2022-08-05T11:26:05.595Z,58.65
2022-08-05T11:26:49.662Z,57.87
2022-08-05T11:27:51.748Z,56.58
2022-08-05T11:28:49.170Z,58.39
2022-08-05T11:29:48.189Z,58.19
2022-08-05T11:30:48.166Z,58.39
2022-08-05T11:31:57.909Z,58.78
2022-08-05T11:32:49.160Z,58.09
2022-08-05T11:33:48.371Z,58.29
2022-08-05T11:34:53.958Z,58.78
2022-08-05T11:36:08.076Z,57.43
2022-08-05T11:36:52.902Z,59.23
2022-08-05T11:38:30.693Z,58.57
2022-08-05T11:38:51.040Z,60.55
2022-08-05T11:39:48.413Z,60.42
2022-08-05T11:40:48.074Z,60.45
2022-08-05T11:42:00.801Z,61.34
2022-08-05T11:42:49.163Z,60.52
2022-08-05T11:44:05.094Z,60.03
2022-08-05T11:44:54.013Z,58.61
2022-08-05T11:46:14.996Z,58.49
2022-08-05T11:47:09.218Z,58.19
2022-08-05T11:47:50.662Z,59.53
2022-08-05T11:48:49.019Z,59.60
2022-08-05T11:49:49.781Z,59.11
2022-08-05T11:50:47.981Z,58.34
2022-08-05T11:51:49.527Z,59.04
2022-08-05T11:52:48.799Z,59.86
2022-08-05T11:53:48.193Z,60.25
2022-08-05T11:54:48.493Z,60.72
2022-08-05T11:55:48.939Z,60.82
2022-08-05T11:56:50.328Z,60.72
2022-08-05T11:58:10.795Z,60.59
2022-08-05T11:58:53.142Z,60.22
2022-08-05T11:59:49.914Z,60.22
2022-08-05T12:00:47.914Z,59.70
2022-08-05T12:01:48.655Z,59.01
2022-08-05T12:02:48.014Z,59.23
2022-08-05T12:03:55.816Z,60.19
2022-08-05T12:04:59.051Z,61.11
2022-08-05T12:05:48.857Z,59.93
2022-08-05T12:06:48.949Z,60.30
2022-08-05T12:08:03.577Z,60.03
2022-08-05T12:08:50.861Z,60.39
2022-08-05T12:09:53.358Z,60.52
2022-08-05T12:10:48.900Z,60.42
2022-08-05T12:11:47.958Z,60.52
2022-08-05T12:12:59.445Z,60.13
2022-08-05T12:13:49.995Z,60.45
2022-08-05T12:14:47.803Z,61.47
2022-08-05T12:15:50.220Z,62.19
2022-08-05T12:16:47.798Z,61.83
2022-08-05T12:18:03.242Z,63.58
2022-08-05T12:18:52.996Z,63.58
2022-08-05T12:20:26.436Z,62.29
2022-08-05T12:20:48.741Z,62.42
2022-08-05T12:21:47.740Z,61.90
2022-08-05T12:22:47.771Z,61.99
2022-08-05T12:23:47.716Z,62.88
2022-08-05T12:24:49.637Z,62.49
2022-08-05T12:25:47.731Z,62.39
2022-08-05T12:26:47.730Z,62.59
2022-08-05T12:27:53.253Z,61.37
2022-08-05T12:28:48.722Z,61.94
2022-08-05T12:29:56.807Z,60.65
2022-08-05T12:30:48.677Z,60.42
2022-08-05T12:31:50.139Z,60.49
2022-08-05T12:32:50.435Z,58.59
2022-08-05T12:33:47.626Z,59.01
2022-08-05T12:34:47.713Z,60.22
2022-08-05T12:35:47.646Z,60.82
2022-08-05T12:36:47.615Z,60.32
2022-08-05T12:37:47.615Z,61.18
2022-08-05T12:38:47.632Z,59.20
2022-08-05T12:39:48.765Z,58.74
2022-08-05T12:40:47.587Z,60.42
2022-08-05T12:41:47.588Z,60.92
2022-08-05T12:42:47.606Z,60.32
2022-08-05T12:43:47.552Z,60.03
2022-08-05T12:44:47.863Z,59.83
2022-08-05T12:45:49.694Z,61.34
2022-08-05T12:46:47.611Z,59.00
2022-08-05T12:48:17.526Z,60.61
2022-08-05T12:48:48.546Z,61.67
2022-08-05T12:50:04.277Z,62.07
2022-08-05T12:50:48.526Z,61.87
2022-08-05T12:52:13.514Z,60.78
2022-08-05T12:52:48.480Z,61.57
2022-08-05T12:53:55.845Z,61.47
2022-08-05T12:54:48.465Z,62.46